Latest Weather Observations for Swan Hill

IDV60801

Issued at 2:02 pm EDT Tuesday 28 February 2017 (issued every 30 minutes, with the page automatically refreshed every 10 minutes)

About weather observations | Map of weather stations | Latest weather observations for VIC | Other Formats
Station Details ID: 077094 Name: SWAN HILL AERODROME Lat: -35.38 Lon: 143.54 Height: 71.0 m
Data from the previous 72 hours. | See also: Recent months at Swan Hill
Date/Time
EDT
Temp
°C
App
Temp
°C
Dew
Point
°C
Rel
Hum
%
Delta-T
°C
Wind Press
QNH
hPa
Press
MSL
hPa
Rain since
9am
mm
Dir  Spd
km/h
Gust
km/h
Spd
kts
Gust
kts
28/02:00pm 33.6 30.2 7.6 20 14.4 E 15 24 8 13 1019.2 1018.8 0.0
28/01:30pm 33.3 29.8 7.3 20 14.3 NE 15 22 8 12 1019.6 1019.2 0.0
28/01:00pm 32.8 29.7 8.9 23 13.5 ENE 15 24 8 13 1019.9 1019.5 0.0
28/12:30pm 31.9 28.6 9.4 25 12.7 N 17 24 9 13 1020.2 1019.9 0.0
28/12:00pm 31.1 27.4 9.3 26 12.2 NE 19 24 10 13 1020.6 1020.3 0.0
28/11:30am 29.6 26.0 9.7 29 11.2 NE 19 26 10 14 1020.8 1020.5 0.0
28/11:00am 28.6 24.8 9.8 31 10.5 NE 20 32 11 17 1021.0 1020.7 0.0
28/10:30am 27.7 23.8 9.5 32 10.1 NE 20 28 11 15 1021.1 1020.8 0.0
28/10:00am 26.2 21.9 9.5 35 9.2 NE 22 32 12 17 1021.0 1020.7 0.0
28/09:30am 25.0 20.4 9.7 38 8.4 NE 24 33 13 18 1021.0 1020.7 0.0
28/09:00am 23.8 20.6 10.1 42 7.5 ENE 17 24 9 13 1020.9 1020.6 0.0
28/08:30am 22.3 19.7 9.5 44 6.9 ENE 13 20 7 11 1020.6 1020.3 0.0
28/08:00am 21.3 18.7 9.2 46 6.4 E 13 20 7 11 1020.4 1020.1 0.0
28/07:30am 20.2 17.5 8.8 48 6.0 E 13 19 7 10 1020.0 1019.6 0.0
28/07:00am 20.3 17.5 8.6 47 6.1 E 13 17 7 9 1019.7 1019.3 0.0
28/06:30am 19.7 17.6 8.4 48 5.9 E 9 13 5 7 1019.5 1019.1 0.0
28/06:00am 18.6 16.6 8.8 53 5.1 E 9 13 5 7 1019.2 1018.8 0.0
28/05:30am 17.0 15.3 8.2 56 4.5 E 7 9 4 5 1019.1 1018.7 0.0
28/05:00am 17.5 15.9 8.6 56 4.6 E 7 9 4 5 1018.9 1018.5 0.0
28/04:30am 18.0 16.4 8.6 54 4.9 E 7 9 4 5 1018.9 1018.5 0.0
28/04:00am 17.2 15.0 7.8 54 4.8 ESE 9 11 5 6 1018.9 1018.5 0.0
28/03:30am 17.6 15.4 7.9 53 4.9 SE 9 11 5 6 1018.9 1018.5 0.0
28/03:00am 17.8 15.6 7.8 52 5.1 SE 9 9 5 5 1019.0 1018.6 0.0
28/02:30am 18.4 16.6 8.1 51 5.3 SE 7 9 4 5 1019.1 1018.7 0.0
28/02:00am 19.2 17.1 8.2 49 5.7 SE 9 9 5 5 1019.3 1018.9 0.0
28/01:30am 19.8 17.6 7.9 46 6.1 SE 9 11 5 6 1019.3 1018.9 0.0
28/01:00am 20.3 18.1 7.7 44 6.5 SE 9 11 5 6 1019.5 1019.1 0.0
28/12:30am 21.5 19.8 8.4 43 6.9 SE 7 9 4 5 1019.5 1019.1 0.0
28/12:00am 22.3 19.8 8.4 41 7.3 SE 11 13 6 7 1019.5 1019.1 0.0
 
Date/Time
EDT
Temp
°C
App
Temp
°C
Dew
Point
°C
Rel
Hum
%
Delta-T
°C
Wind Press
QNH
hPa
Press
MSL
hPa
Rain since
9am
mm
Dir  Spd
km/h
Gust
km/h
Spd
kts
Gust
kts
27/11:30pm 21.9 19.9 7.3 39 7.6 ESE 7 9 4 5 1019.5 1019.1 0.0
27/11:00pm 23.5 21.5 7.2 35 8.5 ESE 7 9 4 5 1019.6 1019.2 0.0
27/10:30pm 25.0 22.6 7.2 32 9.4 ESE 9 13 5 7 1019.5 1019.1 0.0
27/10:00pm 25.0 22.1 6.7 31 9.5 ESE 11 13 6 7 1019.4 1019.0 0.0
27/09:30pm 25.5 22.9 6.2 29 10.0 ESE 9 11 5 6 1019.1 1018.7 0.0
27/09:00pm 26.5 24.3 6.0 27 10.6 ESE 7 9 4 5 1019.0 1018.6 0.0
27/08:30pm 28.4 25.9 6.5 25 11.6 E 9 13 5 7 1018.7 1018.3 0.0
27/08:00pm 29.9 27.0 6.5 23 12.5 E 11 15 6 8 1018.5 1018.1 0.0
27/07:30pm 31.3 27.1 5.7 20 13.6 ESE 17 24 9 13 1018.3 1017.9 0.0
27/07:00pm 32.3 28.5 5.7 19 14.2 ESE 15 20 8 11 1018.0 1017.7 0.0
27/06:30pm 32.5 28.5 5.1 18 14.5 ESE 15 24 8 13 1017.7 1017.4 0.0
27/06:00pm 32.9 28.1 5.5 18 14.6 ENE 20 28 11 15 1017.7 1017.4 0.0
27/05:30pm 33.3 29.3 5.0 17 15.0 ENE 15 24 8 13 1017.6 1017.3 0.0
27/05:00pm 33.5 29.0 4.2 16 15.4 E 17 24 9 13 1017.8 1017.5 0.0
27/04:30pm 34.0 29.6 4.6 16 15.6 E 17 32 9 17 1018.0 1017.7 0.0
27/04:00pm 33.1 28.9 5.6 18 14.7 ESE 17 28 9 15 1018.3 1017.9 0.0
27/03:30pm 33.7 30.3 6.1 18 15.0 E 13 22 7 12 1018.6 1018.2 0.0
27/03:00pm 33.9 29.8 6.3 18 15.0 ENE 17 28 9 15 1018.9 1018.5 0.0
27/02:30pm 33.0 29.7 6.3 19 14.5 ENE 13 26 7 14 1019.3 1018.9 0.0
27/02:00pm 32.6 27.5 6.0 19 14.3 NE 22 37 12 20 1019.7 1019.3 0.0
27/01:30pm 32.7 28.7 6.8 20 14.1 ENE 17 32 9 17 1019.9 1019.5 0.0
27/01:00pm 32.4 28.1 8.0 22 13.5 NE 20 30 11 16 1020.3 1020.0 0.0
27/12:30pm 31.8 27.0 7.5 22 13.3 NE 22 30 12 16 1020.6 1020.3 0.0
27/12:00pm 31.6 27.8 9.8 26 12.4 NE 20 28 11 15 1021.0 1020.7 0.0
27/11:30am 29.5 25.3 9.6 29 11.2 NE 22 32 12 17 1021.2 1020.9 0.0
27/11:00am 27.9 23.3 9.7 32 10.1 NE 24 32 13 17 1021.3 1021.0 0.0
27/10:30am 26.7 21.1 10.0 35 9.3 NE 30 33 16 18 1021.3 1021.0 0.0
27/10:00am 26.0 21.2 10.2 37 8.8 NE 26 35 14 19 1021.4 1021.1 0.0
27/09:30am 24.7 20.6 10.2 40 8.0 NE 22 32 12 17 1021.4 1021.1 0.0
27/09:00am 23.3 18.0 10.0 43 7.3 NE 28 37 15 20 1021.2 1020.9 0.0
27/08:30am 21.4 18.6 9.9 48 6.2 ENE 15 20 8 11 1021.1 1020.8 0.0
27/08:00am 20.5 17.6 9.7 50 5.8 ENE 15 20 8 11 1020.8 1020.5 0.0
27/07:30am 19.4 17.3 9.6 53 5.2 ENE 11 15 6 8 1020.4 1020.1 0.0
27/07:00am 19.2 16.5 9.1 52 5.3 ENE 13 17 7 9 1020.1 1019.7 0.0
27/06:30am 19.1 16.8 9.0 52 5.3 ENE 11 13 6 7 1019.7 1019.3 0.0
27/06:00am 19.5 17.2 9.1 51 5.5 ENE 11 15 6 8 1019.4 1019.0 0.0
27/05:30am 20.2 17.5 8.8 48 6.0 ENE 13 17 7 9 1019.3 1018.9 0.0
27/05:00am 20.3 17.5 8.6 47 6.1 ENE 13 19 7 10 1018.9 1018.5 0.0
27/04:30am 20.9 18.5 8.5 45 6.5 ENE 11 17 6 9 1018.7 1018.3 0.0
27/04:00am 19.2 17.2 8.8 51 5.4 E 9 13 5 7 1018.5 1018.1 0.0
27/03:30am 17.7 15.7 8.6 55 4.7 ESE 9 9 5 5 1018.5 1018.1 0.0
27/03:00am 18.3 16.7 8.8 54 4.9 SE 7 9 4 5 1018.5 1018.1 0.0
27/02:30am 18.9 16.9 8.6 51 5.4 SE 9 11 5 6 1018.5 1018.1 0.0
27/02:00am 20.3 18.3 8.6 47 6.1 ESE 9 13 5 7 1018.4 1018.0 0.0
27/01:30am 20.1 18.1 8.8 48 6.0 SSE 9 11 5 6 1018.5 1018.1 0.0
27/01:00am 20.4 18.8 8.7 47 6.1 ESE 7 9 4 5 1018.0 1017.7 0.0
27/12:30am 21.0 19.4 8.6 45 6.5 ESE 7 9 4 5 1018.0 1017.7 0.0
27/12:00am 22.0 20.3 8.5 42 7.1 ESE 7 9 4 5 1018.0 1017.7 0.0
 
Date/Time
EDT
Temp
°C
App
Temp
°C
Dew
Point
°C
Rel
Hum
%
Delta-T
°C
Wind Press
QNH
hPa
Press
MSL
hPa
Rain since
9am
mm
Dir  Spd
km/h
Gust
km/h
Spd
kts
Gust
kts
26/11:30pm 23.3 21.3 8.6 39 7.9 SE 9 13 5 7 1017.8 1017.5 0.0
26/11:00pm 23.7 21.7 8.6 38 8.1 SE 9 13 5 7 1017.8 1017.5 0.0
26/10:30pm 24.5 22.5 8.5 36 8.6 SE 9 11 5 6 1017.6 1017.3 0.0
26/10:00pm 25.1 22.7 8.6 35 8.9 ESE 11 13 6 7 1017.4 1017.1 0.0
26/09:30pm 25.8 23.8 8.8 34 9.2 SE 9 11 5 6 1017.1 1016.8 0.0
26/09:00pm 26.8 24.8 8.7 32 9.9 SE 9 13 5 7 1016.8 1016.5 0.0
26/08:30pm 28.4 26.4 8.7 29 10.8 SE 9 13 5 7 1016.4 1016.1 0.0
26/08:00pm 30.1 27.7 8.5 26 11.9 SE 11 15 6 8 1016.0 1015.7 0.0
26/07:30pm 31.5 29.1 7.2 22 13.3 E 9 15 5 8 1015.8 1015.5 0.0
26/07:00pm 32.1 30.0 8.4 23 13.2 ESE 9 15 5 8 1015.7 1015.4 0.0
26/06:30pm 32.2 29.5 9.1 24 13.0 SE 13 20 7 11 1015.6 1015.3 0.0
26/06:00pm 32.9 30.1 8.4 22 13.7 E 13 20 7 11 1015.5 1015.2 0.0
26/05:30pm 32.9 30.1 8.4 22 13.7 E 13 19 7 10 1015.4 1015.1 0.0
26/05:00pm 32.1 29.8 9.0 24 13.0 ENE 11 22 6 12 1015.5 1015.2 0.0
26/04:30pm 32.5 29.3 9.9 25 12.9 NE 17 26 9 14 1015.6 1015.3 0.0
26/04:00pm 31.3 28.7 9.5 26 12.3 ESE 13 26 7 14 1015.9 1015.6 0.0
26/03:30pm 32.5 30.2 11.6 28 12.3 ENE 15 24 8 13 1016.2 1015.9 0.0
26/03:00pm 32.1 30.0 11.3 28 12.1 NNE 13 24 7 13 1016.6 1016.3 0.0
26/02:30pm 31.2 29.4 12.1 31 11.3 E 13 30 7 16 1017.1 1016.8 0.0
26/02:00pm 31.3 29.8 13.1 33 10.9 E 13 22 7 12 1017.3 1017.0 0.0
26/01:30pm 29.4 27.5 11.9 34 10.2 NE 13 26 7 14 1017.7 1017.4 0.0
26/01:00pm 28.8 26.5 11.8 35 9.8 N 15 20 8 11 1018.2 1017.8 0.0
26/12:30pm 28.0 25.0 12.0 37 9.3 NNE 19 26 10 14 1018.4 1018.0 0.0
26/12:00pm 26.9 23.9 11.8 39 8.7 NE 19 24 10 13 1018.7 1018.3 0.0
26/11:30am 25.9 22.9 12.0 42 8.0 NE 19 26 10 14 1018.9 1018.5 0.0
26/11:00am 24.4 21.0 11.4 44 7.3 NE 20 30 11 16 1019.2 1018.8 0.0
26/10:30am 22.9 19.7 11.3 48 6.5 ENE 19 28 10 15 1019.4 1019.0 0.0
26/10:00am 20.7 18.5 10.8 53 5.4 E 13 19 7 10 1019.5 1019.1 0.0
26/09:30am 18.1 15.5 9.5 57 4.5 E 13 17 7 9 1019.5 1019.1 0.0
26/09:00am 16.3 13.7 9.5 64 3.5 SE 13 17 7 9 1019.1 1018.7 0.0
26/08:30am 13.4 10.4 7.6 68 2.9 SE 13 17 7 9 1019.0 1018.6 0.0
26/08:00am 11.6 9.2 7.1 74 2.2 SSE 9 11 5 6 1018.9 1018.5 0.0
26/07:30am 9.6 7.0 6.1 79 1.6 SSE 9 11 5 6 1018.7 1018.3 0.0
26/07:00am 9.3 7.0 5.5 77 1.7 SSE 7 9 4 5 1018.3 1017.9 0.0
26/06:30am 10.0 7.7 5.8 75 1.9 SSE 7 11 4 6 1018.2 1017.8 0.0
26/06:00am 10.7 8.1 6.1 73 2.1 SSE 9 11 5 6 1018.2 1017.8 0.0
26/05:30am 11.2 8.6 5.9 70 2.5 S 9 13 5 7 1018.0 1017.7 0.0
26/05:00am 11.2 8.0 5.3 67 2.7 S 11 17 6 9 1017.8 1017.5 0.0
26/04:30am 11.4 8.5 4.8 64 3.0 S 9 13 5 7 1017.5 1017.2 0.0
26/04:00am 11.9 8.7 5.1 63 3.1 SSW 11 15 6 8 1017.9 1017.6 0.0
26/03:30am 12.5 9.7 5.2 61 3.4 S 9 15 5 8 1017.9 1017.6 0.0
26/03:00am 12.8 10.0 5.0 59 3.6 S 9 15 5 8 1018.3 1017.9 0.0
26/02:30am 13.4 10.5 4.6 55 4.1 S 9 15 5 8 1018.7 1018.3 0.0
26/02:00am 14.2 10.6 4.8 53 4.4 SSE 13 19 7 10 1018.8 1018.4 0.0
26/01:30am 15.3 11.3 4.7 49 5.0 S 15 22 8 12 1019.0 1018.6 0.0
26/01:00am 16.1 11.7 4.8 47 5.3 SSE 17 24 9 13 1019.0 1018.6 0.0
26/12:30am 16.7 12.2 4.1 43 5.9 SSE 17 24 9 13 1019.0 1018.6 0.0
26/12:00am 17.5 12.5 3.8 40 6.4 SSE 19 28 10 15 1019.0 1018.6 0.0
 
Date/Time
EDT
Temp
°C
App
Temp
°C
Dew
Point
°C
Rel
Hum
%
Delta-T
°C
Wind Press
QNH
hPa
Press
MSL
hPa
Rain since
9am
mm
Dir  Spd
km/h
Gust
km/h
Spd
kts
Gust
kts
25/11:30pm 17.9 13.1 2.6 36 7.0 SSE 17 22 9 12 1018.9 1018.5 0.0
25/11:00pm 18.2 13.3 1.7 33 7.4 S 17 20 9 11 1019.0 1018.6 0.0
25/10:30pm 18.7 14.0 1.2 31 7.9 S 15 20 8 11 1018.9 1018.5 0.0
25/10:00pm 19.0 15.2 1.5 31 7.9 S 11 15 6 8 1018.6 1018.2 0.0
25/09:30pm 19.5 16.2 2.4 32 7.9 SSW 9 13 5 7 1018.5 1018.1 0.0
25/09:00pm 20.8 17.1 2.6 30 8.5 SSE 11 15 6 8 1018.0 1017.7 0.0
25/08:30pm 22.4 18.4 3.0 28 9.3 SSE 13 20 7 11 1017.8 1017.5 0.0
25/08:00pm 24.3 19.6 3.0 25 10.3 SSE 17 24 9 13 1017.7 1017.4 0.0
25/07:30pm 25.6 20.5 2.9 23 11.1 SSE 19 26 10 14 1017.6 1017.3 0.0
25/07:00pm 26.5 21.2 1.7 20 11.9 S 19 32 10 17 1017.5 1017.2 0.0
25/06:30pm 27.0 22.0 1.4 19 12.3 S 17 28 9 15 1017.4 1017.1 0.0
25/06:00pm 27.4 22.5 1.8 19 12.4 S 17 28 9 15 1017.4 1017.1 0.0
25/05:30pm 27.1 22.0 0.8 18 12.5 S 17 24 9 13 1017.5 1017.2 0.0
25/05:00pm 27.6 22.7 1.9 19 12.5 S 17 26 9 14 1017.6 1017.3 0.0
25/04:30pm 27.2 22.2 1.6 19 12.4 SSE 17 30 9 16 1017.8 1017.5 0.0
25/04:00pm 27.4 21.9 1.8 19 12.4 SSW 20 30 11 16 1018.3 1017.9 0.0
25/03:30pm 26.8 21.7 3.3 22 11.7 S 19 35 10 19 1018.7 1018.3 0.0
25/03:00pm 26.8 21.7 3.3 22 11.6 SSE 19 28 10 15 1019.0 1018.6 0.0
25/02:30pm 25.8 20.5 3.1 23 11.2 S 20 32 11 17 1019.6 1019.2 0.0

Other Formats:

Comma delimited format used in spreadsheet applications
http://www.bom.gov.au/fwo/IDV60801/IDV60801.94843.axf

JavaScript Object Notation format (JSON) in row-major order
http://www.bom.gov.au/fwo/IDV60801/IDV60801.94843.json